createdAt,value
2023-02-05T00:02:34.920Z,7.00
2023-02-05T00:06:43.468Z,7.00
2023-02-05T00:10:55.447Z,7.00
2023-02-05T00:15:04.097Z,7.00
2023-02-05T00:19:12.650Z,7.00
2023-02-05T00:23:21.208Z,7.00
2023-02-05T00:27:29.789Z,6.90
2023-02-05T00:31:38.408Z,6.90
2023-02-05T00:35:47.057Z,6.90
2023-02-05T00:39:55.612Z,6.90
2023-02-05T00:44:04.350Z,6.90
2023-02-05T00:48:12.916Z,6.90
2023-02-05T00:52:21.519Z,6.90
2023-02-05T00:56:30.047Z,6.90
2023-02-05T01:00:39.149Z,6.80
2023-02-05T01:04:47.695Z,6.80
2023-02-05T01:08:56.277Z,6.80
2023-02-05T01:13:06.296Z,6.80
2023-02-05T01:17:14.983Z,6.80
2023-02-05T01:21:24.875Z,6.80
2023-02-05T01:25:33.827Z,6.80
2023-02-05T01:29:42.689Z,6.80
2023-02-05T01:33:51.234Z,6.80
2023-02-05T01:37:59.776Z,6.90
2023-02-05T01:42:17.396Z,6.90
2023-02-05T01:46:29.049Z,6.90
2023-02-05T01:50:49.531Z,6.90
2023-02-05T01:54:58.637Z,6.80
2023-02-05T01:59:13.196Z,6.80
2023-02-05T02:03:23.965Z,6.80
2023-02-05T02:07:32.536Z,6.80
2023-02-05T02:11:43.520Z,6.80
2023-02-05T02:15:52.639Z,6.80
2023-02-05T02:20:04.248Z,6.80
2023-02-05T02:24:27.587Z,6.80
2023-02-05T02:28:41.822Z,6.80
2023-02-05T02:32:53.470Z,6.80
2023-02-05T02:41:32.795Z,6.90
2023-02-05T02:45:44.426Z,6.90
2023-02-05T02:49:58.456Z,6.90
2023-02-05T02:54:10.152Z,6.90
2023-02-05T02:58:27.640Z,7.00
2023-02-05T03:02:37.659Z,7.00
2023-02-05T03:06:49.089Z,6.90
2023-02-05T03:11:09.611Z,6.90
2023-02-05T03:15:18.241Z,6.90
2023-02-05T03:19:26.937Z,7.00
2023-02-05T03:23:35.577Z,7.00
2023-02-05T03:27:44.340Z,7.00
2023-02-05T03:32:15.049Z,7.00
2023-02-05T03:36:32.220Z,7.00
2023-02-05T03:41:01.805Z,7.10
2023-02-05T03:45:16.286Z,7.10
2023-02-05T03:49:30.705Z,7.10
2023-02-05T03:53:53.947Z,7.20
2023-02-05T03:58:05.561Z,7.10
2023-02-05T04:02:14.684Z,7.20
2023-02-05T04:06:23.292Z,7.20
2023-02-05T04:10:32.918Z,7.20
2023-02-05T04:14:41.490Z,7.20
2023-02-05T04:18:50.051Z,7.20
2023-02-05T04:22:58.628Z,7.20
2023-02-05T04:27:07.180Z,7.20
2023-02-05T04:31:15.763Z,7.20
2023-02-05T04:35:24.301Z,7.20
2023-02-05T04:39:32.902Z,7.20
2023-02-05T04:43:41.481Z,7.30
2023-02-05T04:47:50.412Z,7.30
2023-02-05T04:51:58.969Z,7.30
2023-02-05T04:56:09.518Z,7.30
2023-02-05T05:00:18.201Z,7.40
2023-02-05T05:04:27.538Z,7.40
2023-02-05T05:08:36.092Z,7.40
2023-02-05T05:12:44.658Z,7.40
2023-02-05T05:16:53.229Z,7.40
2023-02-05T05:21:02.140Z,7.40
2023-02-05T05:25:10.762Z,7.40
2023-02-05T05:29:19.338Z,7.30
2023-02-05T05:33:28.265Z,7.40
2023-02-05T05:37:36.826Z,7.50
2023-02-05T05:42:03.080Z,7.50
2023-02-05T05:46:11.645Z,7.40
2023-02-05T05:50:20.271Z,7.40
2023-02-05T05:54:28.820Z,7.50
2023-02-05T05:58:37.557Z,7.40
2023-02-05T06:02:46.162Z,7.50
2023-02-05T06:06:54.828Z,7.50
2023-02-05T06:11:03.647Z,7.40
2023-02-05T06:15:12.272Z,7.40
2023-02-05T06:19:20.838Z,7.40
2023-02-05T06:23:29.378Z,7.40
2023-02-05T06:27:37.994Z,7.40
2023-02-05T06:31:46.709Z,7.30
2023-02-05T06:35:55.334Z,7.50
2023-02-05T06:40:03.896Z,7.40
2023-02-05T06:44:12.458Z,7.30
2023-02-05T06:48:21.010Z,7.30
2023-02-05T06:52:29.554Z,7.40
2023-02-05T06:56:38.181Z,7.50
2023-02-05T07:00:46.757Z,7.40
2023-02-05T07:04:55.328Z,7.50
2023-02-05T07:09:03.958Z,7.50
2023-02-05T07:13:12.635Z,7.40
2023-02-05T07:17:21.134Z,7.40
2023-02-05T07:21:29.848Z,7.30
2023-02-05T07:25:38.404Z,7.20
2023-02-05T07:29:46.971Z,7.20
2023-02-05T07:33:56.158Z,7.20
2023-02-05T07:38:04.990Z,7.30
2023-02-05T07:42:13.553Z,7.30
2023-02-05T07:46:23.249Z,7.50
2023-02-05T07:50:31.807Z,7.60
2023-02-05T07:54:40.432Z,7.60
2023-02-05T07:58:49.254Z,7.60
2023-02-05T08:02:57.829Z,7.50
2023-02-05T08:07:06.640Z,7.40
2023-02-05T08:11:16.962Z,7.20
2023-02-05T08:15:26.481Z,7.00
2023-02-05T08:19:35.078Z,6.80
2023-02-05T08:23:43.749Z,6.80
2023-02-05T08:27:52.404Z,6.70
2023-02-05T08:32:04.756Z,6.70
2023-02-05T08:36:16.010Z,6.70
2023-02-05T08:40:24.587Z,6.70
2023-02-05T08:44:33.194Z,6.70
2023-02-05T08:48:42.418Z,6.70
2023-02-05T08:52:51.393Z,6.70
2023-02-05T08:57:00.025Z,6.80
2023-02-05T09:01:14.564Z,6.80
2023-02-05T09:05:23.142Z,6.90
2023-02-05T09:09:35.198Z,6.90
2023-02-05T09:13:43.746Z,6.80
2023-02-05T09:17:52.440Z,6.80
2023-02-05T09:22:01.019Z,6.90
2023-02-05T09:26:09.710Z,7.00
2023-02-05T09:30:18.401Z,6.80
2023-02-05T09:34:26.942Z,6.90
2023-02-05T09:38:35.719Z,6.90
2023-02-05T09:42:47.439Z,6.90
2023-02-05T09:47:17.129Z,7.00
2023-02-05T09:51:37.548Z,7.10
2023-02-05T09:55:48.047Z,7.20
2023-02-05T09:59:56.829Z,7.10
2023-02-05T10:04:07.524Z,7.20
2023-02-05T10:08:36.213Z,7.30
2023-02-05T10:12:53.231Z,7.30
2023-02-05T10:17:16.759Z,7.20
2023-02-05T10:21:40.388Z,7.30
2023-02-05T10:26:06.936Z,7.30
2023-02-05T10:30:33.446Z,7.30
2023-02-05T10:35:05.912Z,7.30
2023-02-05T10:39:17.425Z,7.30
2023-02-05T10:43:45.360Z,7.40
2023-02-05T10:48:02.672Z,7.50
2023-02-05T10:52:13.394Z,7.60
2023-02-05T10:56:22.232Z,7.60
2023-02-05T11:00:31.100Z,7.60
2023-02-05T11:04:54.662Z,7.60
2023-02-05T11:09:04.776Z,7.60
2023-02-05T11:13:21.999Z,7.50
2023-02-05T11:17:36.326Z,7.50
2023-02-05T11:21:59.834Z,7.60
2023-02-05T11:26:20.508Z,7.70
2023-02-05T11:30:50.545Z,7.60
2023-02-05T11:34:48.422Z,7.60
2023-02-05T11:38:58.050Z,7.60
2023-02-05T11:43:18.664Z,7.60
2023-02-05T11:47:33.363Z,7.60
2023-02-05T11:51:47.840Z,7.60
2023-02-05T11:55:59.924Z,7.60
2023-02-05T12:00:16.351Z,7.60
2023-02-05T12:04:26.861Z,7.60
2023-02-05T12:08:44.194Z,7.70
2023-02-05T12:12:58.926Z,7.70
2023-02-05T12:17:36.881Z,7.80
2023-02-05T12:21:48.489Z,7.70
2023-02-05T12:26:25.345Z,7.80
2023-02-05T12:30:45.975Z,7.80
2023-02-05T12:35:15.300Z,7.80
2023-02-05T12:39:29.486Z,7.80
2023-02-05T12:43:43.639Z,7.80
2023-02-05T12:47:55.220Z,7.80
2023-02-05T12:52:18.833Z,7.90
2023-02-05T12:56:45.291Z,7.90
2023-02-05T13:00:56.962Z,7.80
2023-02-05T13:05:32.878Z,7.80
2023-02-05T13:09:50.632Z,7.90
2023-02-05T13:14:05.929Z,7.90
2023-02-05T13:18:17.563Z,8.00
2023-02-05T13:22:55.889Z,8.00
2023-02-05T13:27:25.169Z,8.10
2023-02-05T13:31:43.425Z,8.30
2023-02-05T13:35:55.084Z,8.40
2023-02-05T13:40:28.842Z,8.50
2023-02-05T13:44:58.236Z,8.40
2023-02-05T13:49:39.951Z,8.40
2023-02-05T13:53:54.532Z,8.50
2023-02-05T13:58:24.114Z,8.30
2023-02-05T14:02:49.459Z,7.90
2023-02-05T14:07:08.461Z,7.80
2023-02-05T14:11:17.152Z,7.70
2023-02-05T14:15:28.240Z,7.70
2023-02-05T14:19:53.266Z,7.70
2023-02-05T14:24:30.397Z,7.60
2023-02-05T14:28:42.990Z,7.40
2023-02-05T14:32:54.613Z,7.50
2023-02-05T14:37:03.533Z,7.40
2023-02-05T14:41:19.488Z,7.40
2023-02-05T14:45:28.492Z,7.50
2023-02-05T14:49:40.104Z,7.50
2023-02-05T14:53:57.795Z,7.50
2023-02-05T14:58:10.710Z,7.50
2023-02-05T15:02:55.241Z,7.70
2023-02-05T15:07:06.838Z,7.80
2023-02-05T15:11:46.398Z,7.90
2023-02-05T15:16:15.163Z,7.80
2023-02-05T15:20:27.118Z,7.80
2023-02-05T15:24:38.082Z,7.90
2023-02-05T15:28:49.733Z,7.90
2023-02-05T15:33:06.972Z,8.00
2023-02-05T15:37:24.518Z,8.00
2023-02-05T15:41:38.998Z,8.00
2023-02-05T15:45:48.059Z,7.90
2023-02-05T15:50:00.510Z,7.80
2023-02-05T15:54:09.511Z,7.90
2023-02-05T15:58:21.129Z,7.90
2023-02-05T16:02:31.460Z,7.80
2023-02-05T16:06:40.010Z,7.80
2023-02-05T16:11:01.739Z,7.70
2023-02-05T16:15:19.687Z,7.70
2023-02-05T16:19:53.885Z,7.60
2023-02-05T16:24:05.560Z,7.50
2023-02-05T16:28:22.986Z,7.50
2023-02-05T16:32:44.967Z,7.40
2023-02-05T16:36:54.543Z,7.30
2023-02-05T16:41:17.817Z,7.20
2023-02-05T16:45:28.521Z,7.30
2023-02-05T16:49:39.252Z,7.30
2023-02-05T16:53:50.536Z,7.20
2023-02-05T16:58:02.186Z,7.20
2023-02-05T17:02:16.400Z,7.10
2023-02-05T17:06:25.220Z,7.10
2023-02-05T17:10:39.715Z,7.40
2023-02-05T17:15:00.046Z,7.50
2023-02-05T17:19:23.148Z,7.40
2023-02-05T17:23:31.724Z,7.40
2023-02-05T17:27:42.192Z,7.30
2023-02-05T17:31:50.803Z,7.40
2023-02-05T17:35:59.327Z,7.30
2023-02-05T17:40:08.355Z,7.30
2023-02-05T17:44:17.647Z,7.20
2023-02-05T17:48:26.229Z,7.20
2023-02-05T17:52:34.781Z,7.20
2023-02-05T17:56:44.662Z,7.00
2023-02-05T18:00:54.522Z,7.10
2023-02-05T18:05:03.140Z,7.00
2023-02-05T18:09:12.544Z,7.00
2023-02-05T18:13:22.168Z,6.90
2023-02-05T18:17:30.696Z,6.90
2023-02-05T18:21:39.256Z,6.80
2023-02-05T18:25:47.821Z,6.80
2023-02-05T18:29:56.459Z,7.00
2023-02-05T18:34:07.848Z,6.90
2023-02-05T18:38:16.405Z,6.90
2023-02-05T18:42:25.039Z,6.70
2023-02-05T18:46:34.889Z,6.70
2023-02-05T18:50:43.453Z,6.50
2023-02-05T18:54:52.690Z,6.60
2023-02-05T18:59:05.436Z,6.50
2023-02-05T19:03:13.997Z,6.40
2023-02-05T19:07:24.332Z,6.30
2023-02-05T19:11:33.955Z,6.20
2023-02-05T19:15:42.648Z,6.20
2023-02-05T19:19:51.840Z,6.10
2023-02-05T19:24:04.072Z,6.10
2023-02-05T19:28:12.660Z,6.00
2023-02-05T19:32:21.221Z,6.00
2023-02-05T19:36:30.829Z,6.00
2023-02-05T19:40:39.389Z,5.90
2023-02-05T19:44:47.939Z,5.90
2023-02-05T19:48:59.024Z,5.90
2023-02-05T19:53:08.003Z,5.90
2023-02-05T19:57:16.563Z,5.90
2023-02-05T20:01:33.141Z,5.90
2023-02-05T20:05:41.668Z,5.80
2023-02-05T20:09:50.599Z,5.70
2023-02-05T20:14:01.596Z,5.80
2023-02-05T20:18:10.108Z,5.90
2023-02-05T20:22:19.955Z,5.80
2023-02-05T20:26:28.564Z,5.60
2023-02-05T20:30:54.959Z,5.60
2023-02-05T20:35:03.520Z,5.50
2023-02-05T20:39:12.098Z,5.50
2023-02-05T20:43:20.709Z,5.40
2023-02-05T20:47:29.335Z,5.40
2023-02-05T20:51:37.987Z,5.40
2023-02-05T20:55:46.547Z,5.30
2023-02-05T20:59:55.578Z,5.30
2023-02-05T21:04:06.146Z,5.30
2023-02-05T21:08:14.916Z,5.40
2023-02-05T21:12:25.127Z,5.20
2023-02-05T21:16:35.502Z,5.20
2023-02-05T21:20:46.803Z,5.10
2023-02-05T21:24:55.382Z,5.00
2023-02-05T21:29:06.989Z,5.00
2023-02-05T21:33:15.546Z,4.90
2023-02-05T21:37:24.106Z,4.90
2023-02-05T21:41:32.733Z,4.70
2023-02-05T21:45:41.364Z,4.70
2023-02-05T21:49:49.949Z,4.60
2023-02-05T21:54:00.915Z,4.60
2023-02-05T21:58:09.467Z,4.50
2023-02-05T22:02:18.626Z,4.50
2023-02-05T22:06:29.971Z,4.50
2023-02-05T22:10:38.495Z,4.50
2023-02-05T22:14:48.746Z,4.50
2023-02-05T22:18:58.837Z,4.50
2023-02-05T22:23:07.390Z,4.50
2023-02-05T22:27:16.052Z,4.50
2023-02-05T22:31:24.796Z,4.50
2023-02-05T22:35:34.716Z,4.40
2023-02-05T22:39:43.418Z,4.20
2023-02-05T22:43:51.948Z,4.30
2023-02-05T22:48:00.537Z,4.10
2023-02-05T22:52:09.154Z,4.10
2023-02-05T22:56:18.440Z,4.00
2023-02-05T23:00:27.143Z,4.10
2023-02-05T23:04:35.880Z,4.10
2023-02-05T23:08:45.270Z,4.10
2023-02-05T23:12:53.902Z,4.10
2023-02-05T23:17:02.458Z,4.10
2023-02-05T23:21:17.311Z,4.00
2023-02-05T23:25:25.858Z,4.00
2023-02-05T23:29:34.797Z,3.90
2023-02-05T23:33:43.557Z,3.80
2023-02-05T23:37:55.015Z,3.80
2023-02-05T23:42:05.621Z,3.80
2023-02-05T23:46:14.554Z,3.70
2023-02-05T23:50:23.154Z,3.70
2023-02-05T23:54:31.876Z,3.70
2023-02-05T23:58:40.563Z,3.70
